createdAt,value
2023-04-28T00:02:11.802Z,5.05
2023-04-28T00:04:38.732Z,5.07
2023-04-28T00:07:05.980Z,4.80
2023-04-28T00:09:32.847Z,4.87
2023-04-28T00:11:59.968Z,4.90
2023-04-28T00:14:26.806Z,4.97
2023-04-28T00:16:56.918Z,4.97
2023-04-28T00:19:23.867Z,4.50
2023-04-28T00:21:50.976Z,4.70
2023-04-28T00:24:17.919Z,5.10
2023-04-28T00:26:44.775Z,4.82
2023-04-28T00:29:11.547Z,5.70
2023-04-28T00:31:38.501Z,4.97
2023-04-28T00:34:05.399Z,5.40
2023-04-28T00:36:33.066Z,5.07
2023-04-28T00:38:59.803Z,5.28
2023-04-28T00:41:26.624Z,5.10
2023-04-28T00:43:53.541Z,4.95
2023-04-28T00:46:29.099Z,4.73
2023-04-28T00:48:57.486Z,4.80
2023-04-28T00:51:24.498Z,4.78
2023-04-28T00:53:51.852Z,5.10
2023-04-28T00:56:19.014Z,5.25
2023-04-28T00:58:45.674Z,5.17
2023-04-28T01:01:12.400Z,5.57
2023-04-28T01:03:40.771Z,5.72
2023-04-28T01:06:09.387Z,5.55
2023-04-28T01:08:38.135Z,5.50
2023-04-28T01:11:05.145Z,5.57
2023-04-28T01:13:31.965Z,5.53
2023-04-28T01:15:59.100Z,5.85
2023-04-28T01:18:26.354Z,4.88
2023-04-28T01:20:53.205Z,5.85
2023-04-28T01:23:39.025Z,5.43
2023-04-28T01:26:05.993Z,5.28
2023-04-28T01:28:32.740Z,5.30
2023-04-28T01:30:59.668Z,5.38
2023-04-28T01:33:26.606Z,5.60
2023-04-28T01:35:58.094Z,5.93
2023-04-28T01:38:24.953Z,5.20
2023-04-28T01:40:51.762Z,5.40
2023-04-28T01:43:21.803Z,5.65
2023-04-28T01:45:57.287Z,5.22
2023-04-28T01:48:26.749Z,4.90
2023-04-28T01:51:16.710Z,5.47
2023-04-28T01:54:41.645Z,5.30
2023-04-28T01:57:22.384Z,5.00
2023-04-28T01:59:49.393Z,5.07
2023-04-28T02:02:16.372Z,5.23
2023-04-28T02:04:43.328Z,5.38
2023-04-28T02:07:10.290Z,5.53
2023-04-28T02:09:37.075Z,4.97
2023-04-28T02:12:04.047Z,5.38
2023-04-28T02:14:34.072Z,4.87
2023-04-28T02:17:00.887Z,5.10
2023-04-28T02:19:27.634Z,4.63
2023-04-28T02:21:54.330Z,5.00
2023-04-28T02:24:21.236Z,5.07
2023-04-28T02:26:48.214Z,4.83
2023-04-28T02:29:15.448Z,4.72
2023-04-28T02:31:42.282Z,4.88
2023-04-28T02:34:09.026Z,4.95
2023-04-28T02:36:35.954Z,4.63
2023-04-28T02:39:02.643Z,4.23
2023-04-28T02:41:31.151Z,4.40
2023-04-28T02:43:57.927Z,4.95
2023-04-28T02:46:24.672Z,4.55
2023-04-28T02:48:51.477Z,4.53
2023-04-28T02:51:18.140Z,4.77
2023-04-28T02:53:44.871Z,4.65
2023-04-28T02:56:11.621Z,5.30
2023-04-28T02:58:38.417Z,4.80
2023-04-28T03:01:05.198Z,5.25
2023-04-28T03:03:32.747Z,5.17
2023-04-28T03:05:59.706Z,5.22
2023-04-28T03:08:26.806Z,4.85
2023-04-28T03:10:53.550Z,4.68
2023-04-28T03:13:20.350Z,4.55
2023-04-28T03:15:47.056Z,4.90
2023-04-28T03:18:13.784Z,4.35
2023-04-28T03:20:40.508Z,4.63
2023-04-28T03:23:07.490Z,4.35
2023-04-28T03:25:34.232Z,4.50
2023-04-28T03:28:05.437Z,4.20
2023-04-28T03:30:32.414Z,4.70
2023-04-28T03:32:59.389Z,4.60
2023-04-28T03:35:26.627Z,4.50
2023-04-28T03:37:58.662Z,4.47
2023-04-28T03:40:25.866Z,4.47
2023-04-28T03:42:52.798Z,4.10
2023-04-28T03:45:35.788Z,4.70
2023-04-28T03:48:36.801Z,4.63
2023-04-28T03:51:03.739Z,4.90
2023-04-28T03:53:32.478Z,4.90
2023-04-28T03:55:59.238Z,4.93
2023-04-28T03:58:26.107Z,4.55
2023-04-28T04:00:53.036Z,4.70
2023-04-28T04:03:23.183Z,4.78
2023-04-28T04:05:50.394Z,4.70
2023-04-28T04:08:17.351Z,4.40
2023-04-28T04:10:44.095Z,4.35
2023-04-28T04:13:10.970Z,4.82
2023-04-28T04:15:37.791Z,4.80
2023-04-28T04:18:04.808Z,4.73
2023-04-28T04:20:31.695Z,4.88
2023-04-28T04:22:58.406Z,4.90
2023-04-28T04:25:25.294Z,4.75
2023-04-28T04:27:52.042Z,4.70
2023-04-28T04:30:18.827Z,5.07
2023-04-28T04:32:45.544Z,4.90
2023-04-28T04:35:12.532Z,5.05
2023-04-28T04:37:42.450Z,4.90
2023-04-28T04:40:09.822Z,5.07
2023-04-28T04:42:39.797Z,5.17
2023-04-28T04:45:36.498Z,4.80
2023-04-28T04:48:03.838Z,5.53
2023-04-28T04:50:30.614Z,5.05
2023-04-28T04:52:58.273Z,5.40
2023-04-28T04:55:25.052Z,5.27
2023-04-28T04:57:52.539Z,5.75
2023-04-28T05:00:19.757Z,5.50
2023-04-28T05:02:46.611Z,5.30
2023-04-28T05:07:46.823Z,5.50
2023-04-28T05:10:13.579Z,5.53
2023-04-28T05:12:40.597Z,5.50
2023-04-28T05:15:08.163Z,5.75
2023-04-28T05:17:35.427Z,5.97
2023-04-28T05:20:17.675Z,10.20
2023-04-28T05:22:44.334Z,6.85
2023-04-28T05:25:11.300Z,7.53
2023-04-28T05:27:39.631Z,7.10
2023-04-28T05:30:08.828Z,6.80
2023-04-28T05:32:36.745Z,8.03
2023-04-28T05:35:03.950Z,6.78
2023-04-28T05:37:30.848Z,6.82
2023-04-28T05:39:57.570Z,7.82
2023-04-28T05:42:24.379Z,7.75
2023-04-28T05:44:54.009Z,7.80
2023-04-28T05:47:29.118Z,6.88
2023-04-28T05:50:08.956Z,7.25
2023-04-28T05:52:35.728Z,7.40
2023-04-28T05:55:02.590Z,8.07
2023-04-28T05:57:32.003Z,8.13
2023-04-28T06:00:00.651Z,11.75
2023-04-28T06:05:05.580Z,8.35
2023-04-28T06:07:35.601Z,8.32
2023-04-28T06:52:54.898Z,9.50
2023-04-28T06:55:21.788Z,9.50
2023-04-28T07:01:50.965Z,10.10
2023-04-28T07:04:28.699Z,10.25
2023-04-28T07:06:59.112Z,10.07
2023-04-28T07:09:31.358Z,10.75
2023-04-28T07:11:58.383Z,10.47
2023-04-28T07:14:34.912Z,10.43
2023-04-28T07:17:01.881Z,10.43
2023-04-28T07:19:28.855Z,10.57
2023-04-28T07:22:08.008Z,10.68
2023-04-28T07:24:37.638Z,10.80
2023-04-28T07:27:04.704Z,11.10
2023-04-28T07:29:34.266Z,10.95
2023-04-28T07:35:59.289Z,11.20
2023-04-28T07:38:26.285Z,11.23
2023-04-28T07:40:53.619Z,11.30
2023-04-28T07:43:28.340Z,11.98
2023-04-28T07:45:55.281Z,11.63
2023-04-28T07:48:25.105Z,11.75
2023-04-28T07:50:52.098Z,12.50
2023-04-28T08:17:56.192Z,14.00
2023-04-28T08:54:29.766Z,13.15
2023-04-28T08:56:36.237Z,13.13
2023-04-28T08:59:38.856Z,13.90
2023-04-28T09:02:12.503Z,13.63
2023-04-28T09:08:12.180Z,13.45
2023-04-28T09:10:39.292Z,12.95
2023-04-28T09:13:06.408Z,13.37
2023-04-28T09:15:38.349Z,12.55
2023-04-28T09:18:06.969Z,12.80
2023-04-28T09:20:35.580Z,12.73
2023-04-28T09:23:17.504Z,12.50
2023-04-28T09:26:03.588Z,12.73
2023-04-28T09:28:31.806Z,12.43
2023-04-28T09:30:59.071Z,12.05
2023-04-28T09:33:26.341Z,11.88
2023-04-28T09:35:53.538Z,12.20
2023-04-28T09:38:21.777Z,11.47
2023-04-28T09:41:02.234Z,11.50
2023-04-28T09:43:34.339Z,11.30
2023-04-28T09:46:03.637Z,11.30
2023-04-28T09:48:36.151Z,10.68
2023-04-28T09:51:06.137Z,11.50
2023-04-28T09:53:33.990Z,10.60
2023-04-28T09:56:03.538Z,10.63
2023-04-28T09:58:33.026Z,10.13
2023-04-28T10:01:02.226Z,11.70
2023-04-28T10:03:31.517Z,10.80
2023-04-28T10:05:59.718Z,10.40
2023-04-28T10:08:28.001Z,10.07
2023-04-28T10:10:55.478Z,9.60
2023-04-28T10:13:23.312Z,9.13
2023-04-28T10:15:51.261Z,8.93
2023-04-28T10:18:18.588Z,8.88
2023-04-28T10:20:48.639Z,8.85
2023-04-28T10:23:47.059Z,7.60
2023-04-28T10:26:16.447Z,6.57
2023-04-28T10:28:51.971Z,4.73
2023-04-28T10:31:23.626Z,4.80
2023-04-28T10:33:50.856Z,5.10
2023-04-28T10:36:52.563Z,4.78
2023-04-28T10:39:20.100Z,4.15
2023-04-28T10:42:04.500Z,3.40
2023-04-28T10:44:31.968Z,3.38
2023-04-28T10:47:06.761Z,3.17
2023-04-28T10:49:56.329Z,3.20
2023-04-28T10:52:41.150Z,3.42
2023-04-28T10:55:27.329Z,3.80
2023-04-28T10:58:16.204Z,3.40
2023-04-28T11:00:52.317Z,3.30
2023-04-28T11:03:41.086Z,2.20
2023-04-28T11:06:28.409Z,1.85
2023-04-28T11:08:57.614Z,1.80
2023-04-28T11:11:32.772Z,1.60
2023-04-28T11:14:20.544Z,1.88
2023-04-28T11:17:01.006Z,1.83
2023-04-28T11:19:30.797Z,1.65
2023-04-28T11:21:59.729Z,1.80
2023-04-28T11:24:30.948Z,1.63
2023-04-28T11:26:59.189Z,1.80
2023-04-28T11:29:40.584Z,1.55
2023-04-28T11:32:09.749Z,2.00
2023-04-28T11:34:37.552Z,2.17
2023-04-28T11:37:07.129Z,1.98
2023-04-28T11:39:34.890Z,2.22
2023-04-28T11:42:10.786Z,2.08
2023-04-28T11:44:38.040Z,2.13
2023-04-28T11:47:06.403Z,1.93
2023-04-28T11:49:43.515Z,2.00
2023-04-28T11:52:11.585Z,1.98
2023-04-28T11:54:39.224Z,2.78
2023-04-28T11:57:06.657Z,2.50
2023-04-28T11:59:37.696Z,3.83
2023-04-28T12:02:07.477Z,2.97
2023-04-28T12:04:39.461Z,2.88
2023-04-28T12:07:13.379Z,2.72
2023-04-28T12:09:42.844Z,2.80
2023-04-28T12:12:17.281Z,2.67
2023-04-28T12:14:58.560Z,1.92
2023-04-28T12:17:26.983Z,2.97
2023-04-28T12:19:55.333Z,2.45
2023-04-28T12:22:55.419Z,2.35
2023-04-28T12:25:22.163Z,1.30
2023-04-28T12:28:08.497Z,1.02
2023-04-28T12:30:42.100Z,1.00
2023-04-28T12:33:26.329Z,1.50
2023-04-28T12:35:56.572Z,1.17
2023-04-28T12:38:24.798Z,1.30
2023-04-28T12:40:51.817Z,1.20
2023-04-28T12:43:18.931Z,0.95
2023-04-28T12:45:45.742Z,1.40
2023-04-28T12:48:12.591Z,1.45
2023-04-28T12:50:39.481Z,0.70
2023-04-28T12:53:06.592Z,0.95
2023-04-28T12:55:33.481Z,1.20
2023-04-28T12:58:00.235Z,1.35
2023-04-28T13:00:27.231Z,0.77
2023-04-28T13:02:54.362Z,0.80
2023-04-28T13:05:21.399Z,1.02
2023-04-28T13:07:49.826Z,1.40
2023-04-28T13:10:18.279Z,1.90
2023-04-28T13:12:45.005Z,2.30
2023-04-28T13:15:12.079Z,2.77
2023-04-28T13:17:39.274Z,2.60
2023-04-28T13:20:06.906Z,3.53
2023-04-28T13:22:33.905Z,3.13
2023-04-28T13:25:00.607Z,2.97
2023-04-28T13:27:30.319Z,4.60
2023-04-28T13:29:59.431Z,5.53
2023-04-28T13:32:28.240Z,3.58
2023-04-28T13:34:55.530Z,5.35
2023-04-28T13:37:22.327Z,4.65
2023-04-28T13:39:49.193Z,4.60
2023-04-28T13:42:16.204Z,4.90
2023-04-28T13:44:43.359Z,5.53
2023-04-28T13:47:53.347Z,5.00
2023-04-28T13:50:20.188Z,4.20
2023-04-28T13:52:47.206Z,5.50
2023-04-28T13:55:14.010Z,6.00
2023-04-28T13:57:41.082Z,5.75
2023-04-28T14:00:08.521Z,7.00
2023-04-28T14:02:36.573Z,6.60
2023-04-28T14:05:03.486Z,4.70
2023-04-28T14:07:30.257Z,6.60
2023-04-28T14:09:57.164Z,7.57
2023-04-28T14:12:24.020Z,6.70
2023-04-28T14:14:50.782Z,6.72
2023-04-28T14:17:17.552Z,6.60
2023-04-28T14:19:44.750Z,7.40
2023-04-28T14:22:11.801Z,7.95
2023-04-28T14:24:38.540Z,7.88
2023-04-28T14:27:05.453Z,7.20
2023-04-28T14:29:32.592Z,6.27
2023-04-28T14:31:59.376Z,4.68
2023-04-28T14:34:26.088Z,5.43
2023-04-28T14:36:52.965Z,5.15
2023-04-28T14:39:19.771Z,5.50
2023-04-28T14:41:46.932Z,4.30
2023-04-28T14:44:13.640Z,5.18
2023-04-28T14:46:41.091Z,5.03
2023-04-28T14:49:09.332Z,6.05
2023-04-28T14:51:36.261Z,5.57
2023-04-28T14:54:03.504Z,6.03
2023-04-28T14:56:31.608Z,4.53
2023-04-28T14:58:59.532Z,6.07
2023-04-28T15:01:26.530Z,6.70
2023-04-28T15:03:53.339Z,6.80
2023-04-28T15:06:20.181Z,4.63
2023-04-28T15:08:46.966Z,5.65
2023-04-28T15:11:13.828Z,6.35
2023-04-28T15:13:43.041Z,5.70
2023-04-28T15:16:10.253Z,6.22
2023-04-28T15:18:37.218Z,4.97
2023-04-28T15:21:04.216Z,6.00
2023-04-28T15:23:31.693Z,6.93
2023-04-28T15:25:58.558Z,5.65
2023-04-28T15:28:25.345Z,6.50
2023-04-28T15:30:52.163Z,7.50
2023-04-28T15:33:18.943Z,6.60
2023-04-28T15:35:46.670Z,7.03
2023-04-28T15:38:13.719Z,5.43
2023-04-28T15:40:41.711Z,4.43
2023-04-28T15:43:08.729Z,5.47
2023-04-28T15:45:36.556Z,5.78
2023-04-28T15:48:04.952Z,5.32
2023-04-28T15:50:31.890Z,5.20
2023-04-28T15:52:58.623Z,6.32
2023-04-28T15:55:25.722Z,4.47
2023-04-28T15:57:52.948Z,4.78
2023-04-28T16:00:19.928Z,4.78
2023-04-28T16:02:47.054Z,6.07
2023-04-28T16:05:14.365Z,7.00
2023-04-28T16:07:41.313Z,6.10
2023-04-28T16:10:09.462Z,5.55
2023-04-28T16:12:36.717Z,5.35
2023-04-28T16:15:04.126Z,3.50
2023-04-28T16:17:31.208Z,3.60
2023-04-28T16:19:58.266Z,4.50
2023-04-28T16:22:28.022Z,3.08
2023-04-28T16:24:54.864Z,2.78
2023-04-28T16:27:21.967Z,2.28
2023-04-28T16:29:48.753Z,4.05
2023-04-28T16:32:15.797Z,2.97
2023-04-28T16:34:43.274Z,2.30
2023-04-28T16:37:11.551Z,2.75
2023-04-28T16:39:38.493Z,2.80
2023-04-28T16:42:05.789Z,3.80
2023-04-28T16:44:32.728Z,3.23
2023-04-28T16:46:59.786Z,3.60
2023-04-28T16:49:26.626Z,2.95
2023-04-28T16:52:01.627Z,2.72
2023-04-28T16:54:29.758Z,2.38
2023-04-28T16:56:57.680Z,3.73
2023-04-28T16:59:34.170Z,2.10
2023-04-28T17:02:02.013Z,2.03
2023-04-28T17:04:28.952Z,2.28
2023-04-28T17:06:55.989Z,1.98
2023-04-28T17:09:22.975Z,2.07
2023-04-28T17:11:50.402Z,1.30
2023-04-28T17:14:17.158Z,1.42
2023-04-28T17:16:43.934Z,1.33
2023-04-28T17:19:11.413Z,1.10
2023-04-28T17:21:38.686Z,0.77
2023-04-28T17:24:05.756Z,1.30
2023-04-28T17:26:32.561Z,0.90
2023-04-28T17:28:59.968Z,1.13
2023-04-28T17:31:28.604Z,1.25
2023-04-28T17:33:57.695Z,1.60
2023-04-28T17:36:26.962Z,2.45
2023-04-28T17:38:54.333Z,2.00
2023-04-28T17:41:21.678Z,2.50
2023-04-28T17:43:48.968Z,2.53
2023-04-28T17:46:16.076Z,5.10
2023-04-28T17:48:43.202Z,3.97
2023-04-28T17:51:10.051Z,5.50
2023-04-28T17:53:37.874Z,5.38
2023-04-28T17:56:07.260Z,6.13
2023-04-28T17:58:34.071Z,5.07
2023-04-28T18:01:05.366Z,8.80
2023-04-28T18:03:33.989Z,7.90
2023-04-28T18:06:01.311Z,8.32
2023-04-28T18:08:28.233Z,10.63
2023-04-28T18:11:09.125Z,9.40
2023-04-28T18:13:35.968Z,8.40
2023-04-28T18:16:04.562Z,9.10
2023-04-28T18:18:35.349Z,7.97
2023-04-28T18:21:02.933Z,10.13
2023-04-28T18:23:30.671Z,7.83
2023-04-28T18:25:57.488Z,10.55
2023-04-28T18:28:24.525Z,11.75
2023-04-28T18:30:51.340Z,10.10
2023-04-28T18:33:23.268Z,14.65
2023-04-28T18:35:59.061Z,10.43
2023-04-28T18:38:26.119Z,9.73
2023-04-28T18:40:52.793Z,12.02
2023-04-28T18:43:21.661Z,13.48
2023-04-28T18:45:48.491Z,11.80
2023-04-28T18:48:15.185Z,10.87
2023-04-28T18:50:42.655Z,9.77
2023-04-28T18:53:10.838Z,12.00
2023-04-28T18:55:37.849Z,11.98
2023-04-28T18:58:04.796Z,13.75
2023-04-28T19:00:32.851Z,12.07
2023-04-28T19:03:00.264Z,14.25
2023-04-28T19:05:27.197Z,12.52
2023-04-28T19:07:53.961Z,9.18
2023-04-28T19:10:20.704Z,13.50
2023-04-28T19:12:47.447Z,13.33
2023-04-28T19:15:14.353Z,9.75
2023-04-28T19:17:41.235Z,11.07
2023-04-28T19:20:08.986Z,12.13
2023-04-28T19:22:38.655Z,12.30
2023-04-28T19:25:06.799Z,14.87
2023-04-28T19:27:35.569Z,13.43
2023-04-28T19:30:04.023Z,12.25
2023-04-28T19:32:31.020Z,12.52
2023-04-28T19:34:57.956Z,16.10
2023-04-28T19:37:25.532Z,10.60
2023-04-28T19:39:52.580Z,15.07
2023-04-28T19:42:19.751Z,15.05
2023-04-28T19:44:47.448Z,12.65
2023-04-28T19:47:22.598Z,10.90
2023-04-28T19:49:50.988Z,13.33
2023-04-28T19:52:20.680Z,14.63
2023-04-28T19:54:50.588Z,15.25
2023-04-28T19:57:18.820Z,16.33
2023-04-28T19:59:46.483Z,15.88
2023-04-28T20:02:13.303Z,11.53
2023-04-28T20:04:40.859Z,17.70
2023-04-28T20:07:09.253Z,10.70
2023-04-28T20:09:38.913Z,16.95
2023-04-28T20:12:07.806Z,13.90
2023-04-28T20:14:35.616Z,14.60
2023-04-28T20:17:03.791Z,14.57
2023-04-28T20:19:32.884Z,18.90
2023-04-28T20:22:03.974Z,16.00
2023-04-28T20:24:34.640Z,18.88
2023-04-28T20:27:02.382Z,14.57
2023-04-28T20:29:35.016Z,15.65
2023-04-28T20:32:34.109Z,16.60
2023-04-28T20:35:02.869Z,16.85
2023-04-28T20:37:30.047Z,16.40
2023-04-28T20:39:57.101Z,15.73
2023-04-28T20:42:23.957Z,16.45
2023-04-28T20:44:50.994Z,13.98
2023-04-28T20:47:17.962Z,14.65
2023-04-28T20:49:44.681Z,17.02
2023-04-28T20:52:11.421Z,16.97
2023-04-28T20:54:38.582Z,14.27
2023-04-28T20:57:05.428Z,14.88
2023-04-28T20:59:33.035Z,18.58
2023-04-28T21:02:00.451Z,14.50
2023-04-28T21:04:28.445Z,13.63
2023-04-28T21:06:55.639Z,11.50
2023-04-28T21:09:25.025Z,11.88
2023-04-28T21:11:55.028Z,10.88
2023-04-28T21:14:22.225Z,13.57
2023-04-28T21:16:48.992Z,11.47
2023-04-28T21:19:16.096Z,12.13
2023-04-28T21:21:42.760Z,16.50
2023-04-28T21:24:10.241Z,14.25
2023-04-28T21:26:36.999Z,13.65
2023-04-28T21:29:03.784Z,13.40
2023-04-28T21:31:36.056Z,12.55
2023-04-28T21:34:02.812Z,11.55
2023-04-28T21:36:30.642Z,13.10
2023-04-28T21:38:57.356Z,11.05
2023-04-28T21:41:25.389Z,13.30
2023-04-28T21:43:52.707Z,11.98
2023-04-28T21:46:19.483Z,10.85
2023-04-28T21:48:46.614Z,14.63
2023-04-28T21:51:14.504Z,10.45
2023-04-28T21:53:41.391Z,11.93
2023-04-28T21:56:08.233Z,15.85
2023-04-28T21:58:35.826Z,13.05
2023-04-28T22:01:04.405Z,12.90
2023-04-28T22:03:34.923Z,8.70
2023-04-28T22:06:02.572Z,10.53
2023-04-28T22:08:30.961Z,13.38
2023-04-28T22:10:58.117Z,13.23
2023-04-28T22:13:25.012Z,14.07
2023-04-28T22:15:52.200Z,12.57
2023-04-28T22:18:19.420Z,14.07
2023-04-28T22:20:46.352Z,14.57
2023-04-28T22:23:13.173Z,12.13
2023-04-28T22:25:39.870Z,9.75
2023-04-28T22:28:06.784Z,12.50
2023-04-28T22:30:33.887Z,12.20
2023-04-28T22:33:00.741Z,12.73
2023-04-28T22:35:27.986Z,12.65
2023-04-28T22:37:54.642Z,10.18
2023-04-28T22:40:21.652Z,13.50
2023-04-28T22:42:48.921Z,14.10
2023-04-28T22:45:15.596Z,10.88
2023-04-28T22:47:42.836Z,11.45
2023-04-28T22:50:10.969Z,10.77
2023-04-28T22:52:38.013Z,14.82
2023-04-28T22:55:06.420Z,14.90
2023-04-28T22:57:33.474Z,13.27
2023-04-28T23:00:00.273Z,15.32
2023-04-28T23:02:27.158Z,13.77
2023-04-28T23:05:02.103Z,14.75
2023-04-28T23:07:29.003Z,14.37
2023-04-28T23:09:56.057Z,15.73
2023-04-28T23:12:22.770Z,16.35
2023-04-28T23:14:49.521Z,15.55
2023-04-28T23:17:16.379Z,16.70
2023-04-28T23:19:43.180Z,18.10
2023-04-28T23:22:09.988Z,16.95
2023-04-28T23:24:38.056Z,17.23
2023-04-28T23:27:05.338Z,13.65
2023-04-28T23:29:32.871Z,16.23
2023-04-28T23:31:59.790Z,10.70
2023-04-28T23:34:26.934Z,13.98
2023-04-28T23:36:53.870Z,16.63
2023-04-28T23:39:20.647Z,16.25
2023-04-28T23:41:47.396Z,17.98
2023-04-28T23:44:14.202Z,15.87
2023-04-28T23:46:40.942Z,18.02
2023-04-28T23:49:07.618Z,16.65
2023-04-28T23:51:34.336Z,20.10
2023-04-28T23:54:01.847Z,18.20
2023-04-28T23:56:29.081Z,14.90
2023-04-28T23:58:56.097Z,15.15
